CYVM/YVM METAR and TAF weather

Enter ICAO airport designator
Station Type Date Time Source
CYVM METAR 2018/07/21 13:00 UTC NOAA

CYVM 211300Z 21009KT 20SM SKC 06/03 A2990 RMK SLP128


Station Type Date Time Source
CYVM Decoded METAR 2018/07/21 13:00 UTC NOAA

Broughton Island Airport, Canada (CYVM) 67-33N 064-02W
Jul 21, 2018 - 09:00 AM EDT / 2018.07.21 1300 UTC
Wind: from the SSW (210 degrees) at 10 MPH (9 KT):0
Visibility: 20 mile(s):0
Sky conditions: clear
Temperature: 42 F (6 C)
Dew Point: 37 F (3 C)
Relative Humidity: 81%
Pressure (altimeter): 29.9 in. Hg (1012 hPa)
ob: CYVM 211300Z 21009KT 20SM SKC 06/03 A2990 RMK SLP128
cycle: 13

Station Type Date Time Source
CYVM TAF 2018/07/21 13:39 UTC NOAA

TAF CYVM 211238Z 2113/2201 20008KT P6SM FEW020 BKN230
RMK FCST BASED ON AUTO OBS. NXT FCST BY 211900Z


Example: see airport list